WWA28 TXKF-KJFK
Flight info
| Callsign | WWA28 |
|---|---|
| Flight time | N/A |
| Altitude | 40000 |
| Route | DASER L459 SAVIK/N0499F400 Y486 MOUGH Y495 CAMRN CAMRN5 |
| Aircraft | B789/H-SDE1E2E3FGHIJ2J3J4J5M1RWXY/LB1D1 |
Departure
| Time | N/A |
|---|---|
| Airport | L.F. Wade International Airport (TXKF) |
Arrival
| Time | 2026-05-03 20:37 |
|---|---|
| Airport | John F. Kennedy International Airport (KJFK) |
| Time | Latitude | Longitude | Altitude | Speed | Heading |
|---|---|---|---|---|---|
| 2026-05-03 20:15 | 39.74950 | -72.75107 | 22116 ft | 421 kts | 320° |
| 2026-05-03 20:15 | 39.77199 | -72.77524 | 21598 ft | 418 kts | 319° |
| 2026-05-03 20:15 | 39.79267 | -72.80052 | 21094 ft | 413 kts | 309° |
| 2026-05-03 20:15 | 39.80525 | -72.82374 | 20701 ft | 409 kts | 299° |
| 2026-05-03 20:16 | 39.81628 | -72.85706 | 20209 ft | 406 kts | 285° |
| 2026-05-03 20:16 | 39.82113 | -72.89300 | 19709 ft | 402 kts | 272° |
| 2026-05-03 20:16 | 39.82080 | -72.92931 | 19203 ft | 399 kts | 268° |
| 2026-05-03 20:16 | 39.81991 | -72.96534 | 18676 ft | 397 kts | 268° |
| 2026-05-03 20:17 | 39.81882 | -73.00106 | 18159 ft | 394 kts | 268° |
| 2026-05-03 20:17 | 39.81779 | -73.03655 | 17631 ft | 391 kts | 268° |
| 2026-05-03 20:17 | 39.81686 | -73.07170 | 17114 ft | 387 kts | 268° |
| 2026-05-03 20:17 | 39.81591 | -73.10656 | 16585 ft | 384 kts | 268° |
| 2026-05-03 20:18 | 39.81491 | -73.14116 | 16067 ft | 380 kts | 268° |
| 2026-05-03 20:18 | 39.81392 | -73.17529 | 15534 ft | 374 kts | 268° |
| 2026-05-03 20:18 | 39.81295 | -73.20885 | 15014 ft | 369 kts | 268° |
| 2026-05-03 20:18 | 39.81207 | -73.24196 | 14485 ft | 363 kts | 270° |
| 2026-05-03 20:19 | 39.81575 | -73.27364 | 13971 ft | 358 kts | 288° |
| 2026-05-03 20:19 | 39.82470 | -73.30364 | 13440 ft | 353 kts | 291° |
| 2026-05-03 20:19 | 39.83423 | -73.33294 | 12924 ft | 349 kts | 292° |
| 2026-05-03 20:19 | 39.84372 | -73.36176 | 12386 ft | 345 kts | 292° |
| 2026-05-03 20:20 | 39.84994 | -73.38114 | 12033 ft | 342 kts | 292° |
| 2026-05-03 20:20 | 39.85893 | -73.40960 | 11512 ft | 338 kts | 292° |
| 2026-05-03 20:20 | 39.86785 | -73.43768 | 11087 ft | 332 kts | 292° |
| 2026-05-03 20:20 | 39.87650 | -73.46469 | 11066 ft | 313 kts | 292° |
| 2026-05-03 20:21 | 39.88449 | -73.48971 | 11064 ft | 294 kts | 292° |
| 2026-05-03 20:21 | 39.89220 | -73.51393 | 11068 ft | 287 kts | 292° |
| 2026-05-03 20:21 | 39.89981 | -73.53791 | 11069 ft | 286 kts | 292° |
| 2026-05-03 20:21 | 39.90741 | -73.56181 | 11063 ft | 286 kts | 292° |
| 2026-05-03 20:22 | 39.91500 | -73.58569 | 11067 ft | 285 kts | 292° |
| 2026-05-03 20:22 | 39.92258 | -73.60960 | 11068 ft | 286 kts | 292° |
| 2026-05-03 20:22 | 39.93088 | -73.63311 | 11073 ft | 286 kts | 298° |
| 2026-05-03 20:22 | 39.93995 | -73.65619 | 11064 ft | 287 kts | 294° |
| 2026-05-03 20:23 | 39.94841 | -73.67969 | 11067 ft | 286 kts | 295° |
| 2026-05-03 20:23 | 39.95717 | -73.70302 | 11067 ft | 286 kts | 296° |
| 2026-05-03 20:23 | 39.96611 | -73.72618 | 11068 ft | 286 kts | 296° |
| 2026-05-03 20:23 | 39.97501 | -73.74944 | 11069 ft | 286 kts | 295° |
| 2026-05-03 20:24 | 39.98380 | -73.77266 | 11068 ft | 286 kts | 295° |
| 2026-05-03 20:24 | 39.99260 | -73.79590 | 11066 ft | 286 kts | 295° |
| 2026-05-03 20:24 | 40.00233 | -73.81843 | 11068 ft | 286 kts | 309° |
| 2026-05-03 20:24 | 40.01785 | -73.83480 | 11014 ft | 293 kts | 332° |
| 2026-05-03 20:25 | 40.03726 | -73.84130 | 10663 ft | 293 kts | 357° |
| 2026-05-03 20:25 | 40.05724 | -73.83660 | 10326 ft | 294 kts | 21° |
| 2026-05-03 20:25 | 40.07583 | -73.82564 | 9964 ft | 292 kts | 24° |
| 2026-05-03 20:25 | 40.09410 | -73.81419 | 9589 ft | 291 kts | 24° |
| 2026-05-03 20:26 | 40.11228 | -73.80284 | 9224 ft | 289 kts | 24° |
| 2026-05-03 20:26 | 40.13045 | -73.79174 | 8854 ft | 287 kts | 23° |
| 2026-05-03 20:26 | 40.14852 | -73.78073 | 8486 ft | 286 kts | 24° |
| 2026-05-03 20:26 | 40.16648 | -73.76969 | 8104 ft | 284 kts | 24° |
| 2026-05-03 20:27 | 40.18434 | -73.75870 | 7736 ft | 283 kts | 24° |
| 2026-05-03 20:27 | 40.20211 | -73.74778 | 7362 ft | 281 kts | 24° |
| 2026-05-03 20:27 | 40.21972 | -73.73695 | 6985 ft | 278 kts | 24° |
| 2026-05-03 20:27 | 40.23713 | -73.72624 | 6614 ft | 275 kts | 24° |
| 2026-05-03 20:28 | 40.25435 | -73.71563 | 6238 ft | 272 kts | 24° |
| 2026-05-03 20:28 | 40.27137 | -73.70514 | 5869 ft | 269 kts | 24° |
| 2026-05-03 20:28 | 40.28820 | -73.69477 | 5490 ft | 266 kts | 24° |
| 2026-05-03 20:28 | 40.30489 | -73.68448 | 5109 ft | 263 kts | 23° |
| 2026-05-03 20:29 | 40.32139 | -73.67429 | 4731 ft | 261 kts | 24° |
| 2026-05-03 20:29 | 40.33771 | -73.66422 | 4352 ft | 258 kts | 24° |
| 2026-05-03 20:29 | 40.35390 | -73.65422 | 3975 ft | 256 kts | 23° |
| 2026-05-03 20:29 | 40.36998 | -73.64428 | 3607 ft | 255 kts | 23° |
| 2026-05-03 20:30 | 40.38597 | -73.63439 | 3234 ft | 254 kts | 24° |
| 2026-05-03 20:30 | 40.40170 | -73.62466 | 3081 ft | 243 kts | 24° |
| 2026-05-03 20:30 | 40.41651 | -73.61547 | 3061 ft | 227 kts | 23° |
| 2026-05-03 20:30 | 40.43071 | -73.60667 | 3067 ft | 223 kts | 23° |
| 2026-05-03 20:31 | 40.44470 | -73.59802 | 3095 ft | 224 kts | 23° |
| 2026-05-03 20:31 | 40.45873 | -73.58933 | 3093 ft | 222 kts | 23° |
| 2026-05-03 20:31 | 40.47274 | -73.58064 | 3086 ft | 222 kts | 23° |
| 2026-05-03 20:31 | 40.48662 | -73.57203 | 3088 ft | 217 kts | 23° |
| 2026-05-03 20:32 | 40.49945 | -73.56403 | 3066 ft | 195 kts | 23° |
| 2026-05-03 20:32 | 40.51167 | -73.55645 | 3067 ft | 193 kts | 23° |
| 2026-05-03 20:32 | 40.52375 | -73.54897 | 3078 ft | 192 kts | 23° |
| 2026-05-03 20:32 | 40.53637 | -73.54466 | 3026 ft | 186 kts | 352° |
| 2026-05-03 20:33 | 40.54808 | -73.55115 | 3043 ft | 185 kts | 318° |
| 2026-05-03 20:33 | 40.55536 | -73.56465 | 3086 ft | 182 kts | 299° |
| 2026-05-03 20:33 | 40.56179 | -73.57882 | 3065 ft | 172 kts | 300° |
| 2026-05-03 20:33 | 40.56776 | -73.59178 | 2930 ft | 164 kts | 299° |
| 2026-05-03 20:34 | 40.57346 | -73.60436 | 2736 ft | 160 kts | 299° |
| 2026-05-03 20:34 | 40.57915 | -73.61690 | 2510 ft | 158 kts | 299° |
| 2026-05-03 20:34 | 40.58478 | -73.62933 | 2312 ft | 158 kts | 299° |
| 2026-05-03 20:34 | 40.59033 | -73.64160 | 2101 ft | 158 kts | 299° |
| 2026-05-03 20:35 | 40.59595 | -73.65401 | 1879 ft | 158 kts | 299° |
| 2026-05-03 20:35 | 40.60155 | -73.66638 | 1691 ft | 157 kts | 299° |
| 2026-05-03 20:35 | 40.60713 | -73.67868 | 1463 ft | 156 kts | 299° |
| 2026-05-03 20:35 | 40.61270 | -73.69089 | 1269 ft | 154 kts | 300° |
| 2026-05-03 20:36 | 40.61816 | -73.70287 | 1103 ft | 152 kts | 298° |
| 2026-05-03 20:36 | 40.62354 | -73.71492 | 998 ft | 153 kts | 299° |
| 2026-05-03 20:36 | 40.62908 | -73.72699 | 841 ft | 156 kts | 299° |
| 2026-05-03 20:36 | 40.63460 | -73.73941 | 640 ft | 159 kts | 299° |
| 2026-05-03 20:37 | 40.64027 | -73.75200 | 311 ft | 160 kts | 300° |
| 2026-05-03 20:37 | 40.64581 | -73.76392 | 39 ft | 141 kts | 298° |
| 2026-05-03 20:37 | 40.65004 | -73.77340 | 30 ft | 98 kts | 302° |
| 2026-05-03 20:37 | 40.65278 | -73.77931 | 29 ft | 44 kts | 302° |
| 2026-05-03 20:38 | 40.65396 | -73.78190 | 28 ft | 16 kts | 299° |
| 2026-05-03 20:38 | 40.65412 | -73.78321 | 29 ft | 12 kts | 249° |
| 2026-05-03 20:38 | 40.65371 | -73.78355 | 30 ft | 5 kts | 176° |
| 2026-05-03 20:38 | 40.65323 | -73.78300 | 31 ft | 10 kts | 125° |
| 2026-05-03 20:39 | 40.65284 | -73.78220 | 31 ft | 11 kts | 122° |
| 2026-05-03 20:39 | 40.65234 | -73.78110 | 29 ft | 17 kts | 121° |
| 2026-05-03 20:39 | 40.65164 | -73.77954 | 26 ft | 20 kts | 120° |
| 2026-05-03 20:39 | 40.65104 | -73.77818 | 27 ft | 18 kts | 120° |
| 2026-05-03 20:40 | 40.65039 | -73.77675 | 28 ft | 13 kts | 121° |
| 2026-05-03 20:40 | 40.64994 | -73.77580 | 30 ft | 12 kts | 125° |
| 2026-05-03 20:40 | 40.64924 | -73.77530 | 28 ft | 11 kts | 165° |
| 2026-05-03 20:40 | 40.64861 | -73.77477 | 26 ft | 10 kts | 130° |
| 2026-05-03 20:41 | 40.64822 | -73.77404 | 28 ft | 9 kts | 123° |
| 2026-05-03 20:41 | 40.64791 | -73.77334 | 29 ft | 9 kts | 119° |
| 2026-05-03 20:41 | 40.64757 | -73.77257 | 28 ft | 11 kts | 120° |
| 2026-05-03 20:41 | 40.64714 | -73.77167 | 28 ft | 12 kts | 126° |
| 2026-05-03 20:42 | 40.64647 | -73.77101 | 28 ft | 12 kts | 161° |
| 2026-05-03 20:42 | 40.64559 | -73.77088 | 27 ft | 13 kts | 178° |
| 2026-05-03 20:42 | 40.64464 | -73.77096 | 28 ft | 14 kts | 192° |
| 2026-05-03 20:42 | 40.64379 | -73.77145 | 28 ft | 14 kts | 207° |
| 2026-05-03 20:43 | 40.64296 | -73.77210 | 29 ft | 14 kts | 212° |
| 2026-05-03 20:43 | 40.64216 | -73.77275 | 30 ft | 13 kts | 210° |
| 2026-05-03 20:43 | 40.64135 | -73.77335 | 30 ft | 14 kts | 211° |
| 2026-05-03 20:43 | 40.64044 | -73.77407 | 28 ft | 16 kts | 211° |
| 2026-05-03 20:44 | 40.63947 | -73.77484 | 28 ft | 16 kts | 210° |
| 2026-05-03 20:44 | 40.63846 | -73.77562 | 31 ft | 13 kts | 211° |
| 2026-05-03 20:44 | 40.63788 | -73.77641 | 27 ft | 11 kts | 253° |
| 2026-05-03 20:44 | 40.63805 | -73.77705 | 28 ft | 9 kts | 306° |
| 2026-05-03 20:45 | 40.63871 | -73.77778 | 29 ft | 14 kts | 326° |
| 2026-05-03 20:45 | 40.63956 | -73.77845 | 29 ft | 14 kts | 330° |
| 2026-05-03 20:45 | 40.64029 | -73.77896 | 29 ft | 11 kts | 332° |
| 2026-05-03 20:45 | 40.64051 | -73.77937 | 29 ft | 2 kts | 269° |
| 2026-05-03 20:46 | 40.64046 | -73.77966 | 29 ft | 4 kts | 256° |
| 2026-05-03 20:46 | 40.64035 | -73.78008 | 29 ft | 5 kts | 249° |
| 2026-05-03 20:46 | 40.64026 | -73.78039 | 29 ft | 4 kts | 248° |
| 2026-05-03 20:46 | 40.64022 | -73.78054 | 29 ft | 0 kts | 248° |
| 2026-05-03 20:47 | 40.64020 | -73.78057 | 29 ft | 1 kts | 245° |
| 2026-05-03 20:47 | 40.64016 | -73.78070 | 29 ft | 2 kts | 245° |
| 2026-05-03 20:47 | 40.64015 | -73.78071 | 29 ft | 0 kts | 245° |